METAR Data
IDs: Format: Raw Decoded Include TAF

Data at: 1417 UTC 27 Nov 2021

LBSF 271400Z 18010KT 9999 FEW069 16/03 Q1004 NOSIG